sensor_id;sensor_type;location;lat;lon;timestamp;P1;durP1;ratioP1;P2;durP2;ratioP2
20166;SDS011;10243;49.118;8.508;2023-03-03T00:00:05;94.47;;;57.00;;
20166;SDS011;10243;49.118;8.508;2023-03-03T00:00:32;98.78;;;58.00;;
20166;SDS011;10243;49.118;8.508;2023-03-03T00:00:54;100.35;;;58.65;;
20166;SDS011;10243;49.118;8.508;2023-03-03T00:01:14;104.07;;;61.37;;
20166;SDS011;10243;49.118;8.508;2023-03-03T00:01:35;110.10;;;62.92;;
20166;SDS011;10243;49.118;8.508;2023-03-03T00:01:55;109.00;;;62.90;;
20166;SDS011;10243;49.118;8.508;2023-03-03T00:02:17;113.05;;;63.92;;
20166;SDS011;10243;49.118;8.508;2023-03-03T00:02:37;115.75;;;65.13;;
20166;SDS011;10243;49.118;8.508;2023-03-03T00:02:57;110.10;;;64.37;;
20166;SDS011;10243;49.118;8.508;2023-03-03T00:03:21;118.25;;;65.60;;
20166;SDS011;10243;49.118;8.508;2023-03-03T00:03:42;122.60;;;66.47;;
20166;SDS011;10243;49.118;8.508;2023-03-03T00:04:02;122.67;;;67.93;;
20166;SDS011;10243;49.118;8.508;2023-03-03T00:04:23;122.47;;;68.95;;
20166;SDS011;10243;49.118;8.508;2023-03-03T00:04:43;118.57;;;67.27;;
20166;SDS011;10243;49.118;8.508;2023-03-03T00:05:05;117.03;;;67.05;;
20166;SDS011;10243;49.118;8.508;2023-03-03T00:05:25;117.23;;;68.03;;
20166;SDS011;10243;49.118;8.508;2023-03-03T00:05:46;119.00;;;69.43;;
20166;SDS011;10243;49.118;8.508;2023-03-03T00:06:08;117.40;;;69.30;;
20166;SDS011;10243;49.118;8.508;2023-03-03T00:06:29;116.68;;;67.32;;
20166;SDS011;10243;49.118;8.508;2023-03-03T00:06:50;114.70;;;65.47;;
20166;SDS011;10243;49.118;8.508;2023-03-03T00:07:10;119.23;;;68.13;;
20166;SDS011;10243;49.118;8.508;2023-03-03T00:07:31;117.72;;;66.93;;
20166;SDS011;10243;49.118;8.508;2023-03-03T00:07:52;118.43;;;66.57;;
20166;SDS011;10243;49.118;8.508;2023-03-03T00:08:13;116.65;;;66.40;;
20166;SDS011;10243;49.118;8.508;2023-03-03T00:08:33;115.43;;;67.80;;
20166;SDS011;10243;49.118;8.508;2023-03-03T00:08:54;110.40;;;65.70;;
20166;SDS011;10243;49.118;8.508;2023-03-03T00:09:15;113.38;;;65.15;;
20166;SDS011;10243;49.118;8.508;2023-03-03T00:09:35;110.67;;;64.00;;
20166;SDS011;10243;49.118;8.508;2023-03-03T00:09:56;110.75;;;63.45;;
20166;SDS011;10243;49.118;8.508;2023-03-03T00:10:16;112.97;;;64.43;;
20166;SDS011;10243;49.118;8.508;2023-03-03T00:10:37;112.93;;;64.07;;
20166;SDS011;10243;49.118;8.508;2023-03-03T00:10:57;113.43;;;63.83;;
20166;SDS011;10243;49.118;8.508;2023-03-03T00:11:19;113.25;;;64.63;;
20166;SDS011;10243;49.118;8.508;2023-03-03T00:11:41;113.00;;;64.30;;
20166;SDS011;10243;49.118;8.508;2023-03-03T00:12:02;110.75;;;63.35;;
20166;SDS011;10243;49.118;8.508;2023-03-03T00:12:37;110.60;;;63.58;;
20166;SDS011;10243;49.118;8.508;2023-03-03T00:13:05;114.13;;;63.67;;
20166;SDS011;10243;49.118;8.508;2023-03-03T00:13:32;109.20;;;62.72;;
20166;SDS011;10243;49.118;8.508;2023-03-03T00:13:57;111.25;;;63.78;;
20166;SDS011;10243;49.118;8.508;2023-03-03T00:14:20;114.05;;;65.28;;
20166;SDS011;10243;49.118;8.508;2023-03-03T00:14:42;113.30;;;65.40;;
20166;SDS011;10243;49.118;8.508;2023-03-03T00:15:11;113.67;;;64.10;;
20166;SDS011;10243;49.118;8.508;2023-03-03T00:15:32;116.80;;;64.75;;
20166;SDS011;10243;49.118;8.508;2023-03-03T00:15:56;117.85;;;65.38;;
20166;SDS011;10243;49.118;8.508;2023-03-03T00:16:30;111.53;;;64.25;;
20166;SDS011;10243;49.118;8.508;2023-03-03T00:16:50;111.97;;;65.40;;
20166;SDS011;10243;49.118;8.508;2023-03-03T00:17:13;113.93;;;65.28;;
20166;SDS011;10243;49.118;8.508;2023-03-03T00:17:35;117.97;;;65.22;;
20166;SDS011;10243;49.118;8.508;2023-03-03T00:17:56;117.30;;;64.32;;
20166;SDS011;10243;49.118;8.508;2023-03-03T00:18:20;112.70;;;64.73;;
20166;SDS011;10243;49.118;8.508;2023-03-03T00:18:42;111.23;;;63.33;;
20166;SDS011;10243;49.118;8.508;2023-03-03T00:19:06;110.75;;;64.28;;
20166;SDS011;10243;49.118;8.508;2023-03-03T00:19:35;111.65;;;64.38;;
20166;SDS011;10243;49.118;8.508;2023-03-03T00:19:58;113.43;;;64.22;;
20166;SDS011;10243;49.118;8.508;2023-03-03T00:20:26;115.57;;;66.40;;
20166;SDS011;10243;49.118;8.508;2023-03-03T00:20:47;113.38;;;64.32;;
20166;SDS011;10243;49.118;8.508;2023-03-03T00:21:14;100.97;;;58.13;;
20166;SDS011;10243;49.118;8.508;2023-03-03T00:21:39;98.82;;;56.20;;
20166;SDS011;10243;49.118;8.508;2023-03-03T00:22:01;93.68;;;56.40;;
20166;SDS011;10243;49.118;8.508;2023-03-03T00:22:25;98.73;;;58.47;;
20166;SDS011;10243;49.118;8.508;2023-03-03T00:22:47;100.90;;;59.92;;
20166;SDS011;10243;49.118;8.508;2023-03-03T00:23:13;102.63;;;59.63;;
20166;SDS011;10243;49.118;8.508;2023-03-03T00:23:36;100.78;;;57.03;;
20166;SDS011;10243;49.118;8.508;2023-03-03T00:24:04;98.53;;;58.65;;
20166;SDS011;10243;49.118;8.508;2023-03-03T00:24:32;96.65;;;57.58;;
20166;SDS011;10243;49.118;8.508;2023-03-03T00:24:57;97.20;;;57.40;;
20166;SDS011;10243;49.118;8.508;2023-03-03T00:25:24;100.63;;;58.50;;
20166;SDS011;10243;49.118;8.508;2023-03-03T00:25:48;100.45;;;58.65;;
20166;SDS011;10243;49.118;8.508;2023-03-03T00:26:14;98.57;;;57.72;;
20166;SDS011;10243;49.118;8.508;2023-03-03T00:26:36;97.65;;;56.47;;
20166;SDS011;10243;49.118;8.508;2023-03-03T00:27:00;98.03;;;57.67;;
20166;SDS011;10243;49.118;8.508;2023-03-03T00:27:24;95.72;;;57.58;;
20166;SDS011;10243;49.118;8.508;2023-03-03T00:27:46;96.65;;;58.38;;
20166;SDS011;10243;49.118;8.508;2023-03-03T00:28:07;100.67;;;59.60;;
20166;SDS011;10243;49.118;8.508;2023-03-03T00:28:40;105.43;;;60.75;;
20166;SDS011;10243;49.118;8.508;2023-03-03T00:29:17;97.63;;;58.00;;
20166;SDS011;10243;49.118;8.508;2023-03-03T00:29:44;102.35;;;58.15;;
20166;SDS011;10243;49.118;8.508;2023-03-03T00:30:08;99.47;;;58.50;;
20166;SDS011;10243;49.118;8.508;2023-03-03T00:30:37;101.70;;;57.97;;
20166;SDS011;10243;49.118;8.508;2023-03-03T00:30:57;97.57;;;57.67;;
20166;SDS011;10243;49.118;8.508;2023-03-03T00:31:19;100.38;;;58.78;;
20166;SDS011;10243;49.118;8.508;2023-03-03T00:31:40;101.32;;;59.50;;
20166;SDS011;10243;49.118;8.508;2023-03-03T00:32:43;102.00;;;60.65;;
20166;SDS011;10243;49.118;8.508;2023-03-03T00:33:09;101.55;;;59.72;;
20166;SDS011;10243;49.118;8.508;2023-03-03T00:33:35;98.78;;;58.70;;
20166;SDS011;10243;49.118;8.508;2023-03-03T00:34:10;101.85;;;59.38;;
20166;SDS011;10243;49.118;8.508;2023-03-03T00:34:39;101.85;;;60.28;;
20166;SDS011;10243;49.118;8.508;2023-03-03T00:35:01;104.10;;;61.13;;
20166;SDS011;10243;49.118;8.508;2023-03-03T00:35:36;110.07;;;63.50;;
20166;SDS011;10243;49.118;8.508;2023-03-03T00:35:59;109.50;;;63.33;;
20166;SDS011;10243;49.118;8.508;2023-03-03T00:36:27;105.88;;;63.53;;
20166;SDS011;10243;49.118;8.508;2023-03-03T00:36:51;107.50;;;63.35;;
20166;SDS011;10243;49.118;8.508;2023-03-03T00:37:22;105.20;;;62.22;;
20166;SDS011;10243;49.118;8.508;2023-03-03T00:37:45;111.82;;;62.67;;
20166;SDS011;10243;49.118;8.508;2023-03-03T00:38:09;108.43;;;62.65;;
20166;SDS011;10243;49.118;8.508;2023-03-03T00:38:30;107.78;;;62.53;;
20166;SDS011;10243;49.118;8.508;2023-03-03T00:38:53;108.20;;;61.17;;
20166;SDS011;10243;49.118;8.508;2023-03-03T00:39:19;111.78;;;63.38;;
20166;SDS011;10243;49.118;8.508;2023-03-03T00:39:41;111.35;;;64.53;;
20166;SDS011;10243;49.118;8.508;2023-03-03T00:40:49;118.63;;;66.43;;
20166;SDS011;10243;49.118;8.508;2023-03-03T00:41:13;117.38;;;67.15;;
20166;SDS011;10243;49.118;8.508;2023-03-03T00:41:35;119.15;;;66.00;;
20166;SDS011;10243;49.118;8.508;2023-03-03T00:41:56;115.22;;;66.70;;
20166;SDS011;10243;49.118;8.508;2023-03-03T00:42:18;116.10;;;66.55;;
20166;SDS011;10243;49.118;8.508;2023-03-03T00:42:39;114.40;;;66.35;;
20166;SDS011;10243;49.118;8.508;2023-03-03T00:43:01;117.85;;;67.72;;
20166;SDS011;10243;49.118;8.508;2023-03-03T00:43:22;119.53;;;66.60;;
20166;SDS011;10243;49.118;8.508;2023-03-03T00:43:43;122.93;;;67.68;;
20166;SDS011;10243;49.118;8.508;2023-03-03T00:44:18;120.53;;;68.13;;
20166;SDS011;10243;49.118;8.508;2023-03-03T00:44:51;119.00;;;68.65;;
20166;SDS011;10243;49.118;8.508;2023-03-03T00:45:31;125.38;;;71.28;;
20166;SDS011;10243;49.118;8.508;2023-03-03T00:45:55;115.32;;;68.00;;
20166;SDS011;10243;49.118;8.508;2023-03-03T00:46:17;114.95;;;64.93;;
20166;SDS011;10243;49.118;8.508;2023-03-03T00:46:37;114.95;;;66.70;;
20166;SDS011;10243;49.118;8.508;2023-03-03T00:46:59;118.40;;;67.23;;
20166;SDS011;10243;49.118;8.508;2023-03-03T00:47:26;121.32;;;69.35;;
20166;SDS011;10243;49.118;8.508;2023-03-03T00:47:47;124.15;;;70.55;;
20166;SDS011;10243;49.118;8.508;2023-03-03T00:48:18;123.68;;;71.10;;
20166;SDS011;10243;49.118;8.508;2023-03-03T00:48:40;124.60;;;71.75;;
20166;SDS011;10243;49.118;8.508;2023-03-03T00:49:04;125.20;;;71.45;;
20166;SDS011;10243;49.118;8.508;2023-03-03T00:49:30;122.93;;;70.55;;
20166;SDS011;10243;49.118;8.508;2023-03-03T00:49:51;118.35;;;68.95;;
20166;SDS011;10243;49.118;8.508;2023-03-03T00:50:16;112.18;;;66.43;;
20166;SDS011;10243;49.118;8.508;2023-03-03T00:50:37;108.18;;;62.72;;
20166;SDS011;10243;49.118;8.508;2023-03-03T00:51:00;102.10;;;59.63;;
20166;SDS011;10243;49.118;8.508;2023-03-03T00:51:25;102.25;;;59.28;;
20166;SDS011;10243;49.118;8.508;2023-03-03T00:51:45;98.85;;;58.05;;
20166;SDS011;10243;49.118;8.508;2023-03-03T00:52:09;103.10;;;58.70;;
20166;SDS011;10243;49.118;8.508;2023-03-03T00:52:31;97.57;;;56.83;;
20166;SDS011;10243;49.118;8.508;2023-03-03T00:53:02;98.63;;;58.85;;
20166;SDS011;10243;49.118;8.508;2023-03-03T00:53:23;106.47;;;59.47;;
20166;SDS011;10243;49.118;8.508;2023-03-03T00:53:44;111.88;;;61.67;;
20166;SDS011;10243;49.118;8.508;2023-03-03T00:54:06;106.63;;;59.75;;
20166;SDS011;10243;49.118;8.508;2023-03-03T00:54:26;99.07;;;57.83;;
20166;SDS011;10243;49.118;8.508;2023-03-03T00:54:49;99.40;;;59.13;;
20166;SDS011;10243;49.118;8.508;2023-03-03T00:55:10;103.70;;;60.65;;
20166;SDS011;10243;49.118;8.508;2023-03-03T00:55:31;100.10;;;59.00;;
20166;SDS011;10243;49.118;8.508;2023-03-03T00:55:52;96.18;;;56.92;;
20166;SDS011;10243;49.118;8.508;2023-03-03T00:56:14;96.45;;;55.80;;
20166;SDS011;10243;49.118;8.508;2023-03-03T00:56:34;95.40;;;57.10;;
20166;SDS011;10243;49.118;8.508;2023-03-03T00:56:55;95.57;;;59.10;;
20166;SDS011;10243;49.118;8.508;2023-03-03T00:57:15;99.83;;;59.30;;
20166;SDS011;10243;49.118;8.508;2023-03-03T00:57:38;105.15;;;60.45;;
20166;SDS011;10243;49.118;8.508;2023-03-03T00:58:01;102.13;;;58.88;;
20166;SDS011;10243;49.118;8.508;2023-03-03T00:58:27;101.30;;;59.25;;
20166;SDS011;10243;49.118;8.508;2023-03-03T00:58:49;104.38;;;60.63;;
20166;SDS011;10243;49.118;8.508;2023-03-03T00:59:12;103.93;;;60.95;;
20166;SDS011;10243;49.118;8.508;2023-03-03T00:59:33;108.13;;;61.97;;
20166;SDS011;10243;49.118;8.508;2023-03-03T00:59:54;108.00;;;62.27;;
20166;SDS011;10243;49.118;8.508;2023-03-03T01:00:14;104.30;;;60.53;;
20166;SDS011;10243;49.118;8.508;2023-03-03T01:00:35;103.53;;;59.67;;
20166;SDS011;10243;49.118;8.508;2023-03-03T01:00:58;102.90;;;57.63;;
20166;SDS011;10243;49.118;8.508;2023-03-03T01:01:27;97.65;;;57.47;;
20166;SDS011;10243;49.118;8.508;2023-03-03T01:01:48;96.13;;;56.90;;
20166;SDS011;10243;49.118;8.508;2023-03-03T01:02:08;93.20;;;55.60;;
20166;SDS011;10243;49.118;8.508;2023-03-03T01:02:30;98.90;;;56.47;;
20166;SDS011;10243;49.118;8.508;2023-03-03T01:02:50;98.53;;;56.90;;
20166;SDS011;10243;49.118;8.508;2023-03-03T01:03:12;103.28;;;58.70;;
20166;SDS011;10243;49.118;8.508;2023-03-03T01:03:33;101.03;;;60.33;;
20166;SDS011;10243;49.118;8.508;2023-03-03T01:03:54;102.32;;;59.95;;
20166;SDS011;10243;49.118;8.508;2023-03-03T01:04:15;106.55;;;61.92;;
20166;SDS011;10243;49.118;8.508;2023-03-03T01:04:35;110.63;;;62.77;;
20166;SDS011;10243;49.118;8.508;2023-03-03T01:04:56;112.03;;;63.75;;
20166;SDS011;10243;49.118;8.508;2023-03-03T01:05:17;105.67;;;64.53;;
20166;SDS011;10243;49.118;8.508;2023-03-03T01:05:38;113.47;;;67.07;;
20166;SDS011;10243;49.118;8.508;2023-03-03T01:05:59;118.10;;;67.13;;
20166;SDS011;10243;49.118;8.508;2023-03-03T01:06:19;118.90;;;66.90;;
20166;SDS011;10243;49.118;8.508;2023-03-03T01:06:40;118.82;;;66.93;;
20166;SDS011;10243;49.118;8.508;2023-03-03T01:07:01;120.00;;;69.60;;
20166;SDS011;10243;49.118;8.508;2023-03-03T01:07:21;127.63;;;71.10;;
20166;SDS011;10243;49.118;8.508;2023-03-03T01:07:42;126.20;;;70.30;;
20166;SDS011;10243;49.118;8.508;2023-03-03T01:08:03;119.10;;;69.05;;
20166;SDS011;10243;49.118;8.508;2023-03-03T01:08:23;119.13;;;67.88;;
20166;SDS011;10243;49.118;8.508;2023-03-03T01:08:45;117.45;;;65.82;;
20166;SDS011;10243;49.118;8.508;2023-03-03T01:09:05;116.97;;;68.33;;
20166;SDS011;10243;49.118;8.508;2023-03-03T01:09:27;121.72;;;68.18;;
20166;SDS011;10243;49.118;8.508;2023-03-03T01:09:48;126.23;;;67.73;;
20166;SDS011;10243;49.118;8.508;2023-03-03T01:10:08;108.03;;;62.03;;
20166;SDS011;10243;49.118;8.508;2023-03-03T01:10:31;95.20;;;55.25;;
20166;SDS011;10243;49.118;8.508;2023-03-03T01:10:53;93.82;;;55.60;;
20166;SDS011;10243;49.118;8.508;2023-03-03T01:11:16;96.97;;;57.08;;
20166;SDS011;10243;49.118;8.508;2023-03-03T01:11:39;112.65;;;65.13;;
20166;SDS011;10243;49.118;8.508;2023-03-03T01:12:00;124.90;;;69.50;;
20166;SDS011;10243;49.118;8.508;2023-03-03T01:12:20;124.85;;;69.63;;
20166;SDS011;10243;49.118;8.508;2023-03-03T01:12:42;123.90;;;69.07;;
20166;SDS011;10243;49.118;8.508;2023-03-03T01:13:03;121.85;;;70.13;;
20166;SDS011;10243;49.118;8.508;2023-03-03T01:13:25;126.03;;;72.00;;
20166;SDS011;10243;49.118;8.508;2023-03-03T01:13:46;128.60;;;72.97;;
20166;SDS011;10243;49.118;8.508;2023-03-03T01:14:07;124.65;;;71.03;;
20166;SDS011;10243;49.118;8.508;2023-03-03T01:14:27;119.47;;;70.60;;
20166;SDS011;10243;49.118;8.508;2023-03-03T01:14:49;122.72;;;71.03;;
20166;SDS011;10243;49.118;8.508;2023-03-03T01:15:12;124.43;;;68.97;;
20166;SDS011;10243;49.118;8.508;2023-03-03T01:15:33;120.97;;;68.22;;
20166;SDS011;10243;49.118;8.508;2023-03-03T01:15:53;121.03;;;69.07;;
20166;SDS011;10243;49.118;8.508;2023-03-03T01:16:15;120.80;;;68.18;;
20166;SDS011;10243;49.118;8.508;2023-03-03T01:16:35;118.80;;;68.28;;
20166;SDS011;10243;49.118;8.508;2023-03-03T01:16:56;121.67;;;68.90;;
20166;SDS011;10243;49.118;8.508;2023-03-03T01:17:16;116.72;;;67.25;;
20166;SDS011;10243;49.118;8.508;2023-03-03T01:17:37;114.20;;;65.60;;
20166;SDS011;10243;49.118;8.508;2023-03-03T01:17:59;117.50;;;69.32;;
20166;SDS011;10243;49.118;8.508;2023-03-03T01:18:20;115.82;;;68.70;;
20166;SDS011;10243;49.118;8.508;2023-03-03T01:18:40;113.05;;;65.35;;
20166;SDS011;10243;49.118;8.508;2023-03-03T01:19:01;115.67;;;66.40;;
20166;SDS011;10243;49.118;8.508;2023-03-03T01:19:21;114.13;;;66.55;;
20166;SDS011;10243;49.118;8.508;2023-03-03T01:19:42;109.70;;;65.80;;
20166;SDS011;10243;49.118;8.508;2023-03-03T01:20:03;109.47;;;65.15;;
20166;SDS011;10243;49.118;8.508;2023-03-03T01:20:24;110.63;;;64.53;;
20166;SDS011;10243;49.118;8.508;2023-03-03T01:20:44;112.72;;;64.70;;
20166;SDS011;10243;49.118;8.508;2023-03-03T01:21:05;110.90;;;64.90;;
20166;SDS011;10243;49.118;8.508;2023-03-03T01:21:26;109.85;;;65.38;;
20166;SDS011;10243;49.118;8.508;2023-03-03T01:21:47;110.60;;;65.13;;
20166;SDS011;10243;49.118;8.508;2023-03-03T01:22:07;108.47;;;64.25;;
20166;SDS011;10243;49.118;8.508;2023-03-03T01:22:28;109.73;;;63.43;;
20166;SDS011;10243;49.118;8.508;2023-03-03T01:22:48;110.45;;;63.08;;
20166;SDS011;10243;49.118;8.508;2023-03-03T01:23:09;110.22;;;63.67;;
20166;SDS011;10243;49.118;8.508;2023-03-03T01:23:30;113.80;;;64.53;;
20166;SDS011;10243;49.118;8.508;2023-03-03T01:23:50;115.10;;;64.30;;
20166;SDS011;10243;49.118;8.508;2023-03-03T01:24:11;110.93;;;63.93;;
20166;SDS011;10243;49.118;8.508;2023-03-03T01:24:32;111.57;;;64.55;;
20166;SDS011;10243;49.118;8.508;2023-03-03T01:24:53;111.53;;;65.77;;
20166;SDS011;10243;49.118;8.508;2023-03-03T01:25:13;114.03;;;65.57;;
20166;SDS011;10243;49.118;8.508;2023-03-03T01:25:33;114.10;;;64.50;;
20166;SDS011;10243;49.118;8.508;2023-03-03T01:25:55;111.22;;;63.78;;
20166;SDS011;10243;49.118;8.508;2023-03-03T01:26:15;110.47;;;63.90;;
20166;SDS011;10243;49.118;8.508;2023-03-03T01:26:36;112.00;;;64.13;;
20166;SDS011;10243;49.118;8.508;2023-03-03T01:26:56;110.20;;;62.20;;
20166;SDS011;10243;49.118;8.508;2023-03-03T01:27:17;104.73;;;61.27;;
20166;SDS011;10243;49.118;8.508;2023-03-03T01:27:39;105.25;;;62.03;;
20166;SDS011;10243;49.118;8.508;2023-03-03T01:28:02;108.32;;;61.03;;
20166;SDS011;10243;49.118;8.508;2023-03-03T01:28:22;106.32;;;61.58;;
20166;SDS011;10243;49.118;8.508;2023-03-03T01:28:43;104.10;;;61.33;;
20166;SDS011;10243;49.118;8.508;2023-03-03T01:29:03;104.03;;;61.88;;
20166;SDS011;10243;49.118;8.508;2023-03-03T01:29:24;105.47;;;61.50;;
20166;SDS011;10243;49.118;8.508;2023-03-03T01:29:45;101.28;;;60.45;;
20166;SDS011;10243;49.118;8.508;2023-03-03T01:30:06;102.77;;;60.80;;
20166;SDS011;10243;49.118;8.508;2023-03-03T01:30:27;107.43;;;62.80;;
20166;SDS011;10243;49.118;8.508;2023-03-03T01:30:47;108.63;;;63.03;;
20166;SDS011;10243;49.118;8.508;2023-03-03T01:31:08;110.07;;;63.87;;
20166;SDS011;10243;49.118;8.508;2023-03-03T01:31:29;112.30;;;62.15;;
20166;SDS011;10243;49.118;8.508;2023-03-03T01:31:49;113.37;;;63.60;;
20166;SDS011;10243;49.118;8.508;2023-03-03T01:32:10;114.93;;;65.10;;
20166;SDS011;10243;49.118;8.508;2023-03-03T01:32:30;117.90;;;65.90;;
20166;SDS011;10243;49.118;8.508;2023-03-03T01:32:51;113.45;;;64.53;;
20166;SDS011;10243;49.118;8.508;2023-03-03T01:33:12;112.43;;;63.38;;
20166;SDS011;10243;49.118;8.508;2023-03-03T01:33:33;106.78;;;62.17;;
20166;SDS011;10243;49.118;8.508;2023-03-03T01:33:54;107.20;;;62.50;;
20166;SDS011;10243;49.118;8.508;2023-03-03T01:34:14;110.23;;;64.07;;
20166;SDS011;10243;49.118;8.508;2023-03-03T01:34:35;110.73;;;65.10;;
20166;SDS011;10243;49.118;8.508;2023-03-03T01:34:55;113.38;;;65.75;;
20166;SDS011;10243;49.118;8.508;2023-03-03T01:35:16;118.78;;;67.97;;
20166;SDS011;10243;49.118;8.508;2023-03-03T01:35:41;119.93;;;67.32;;
20166;SDS011;10243;49.118;8.508;2023-03-03T01:36:02;115.13;;;65.63;;
20166;SDS011;10243;49.118;8.508;2023-03-03T01:36:24;112.90;;;65.57;;
20166;SDS011;10243;49.118;8.508;2023-03-03T01:36:44;110.75;;;65.05;;
20166;SDS011;10243;49.118;8.508;2023-03-03T01:37:05;122.03;;;68.63;;
20166;SDS011;10243;49.118;8.508;2023-03-03T01:37:25;125.10;;;70.07;;
20166;SDS011;10243;49.118;8.508;2023-03-03T01:37:46;125.13;;;70.90;;
20166;SDS011;10243;49.118;8.508;2023-03-03T01:38:07;126.60;;;70.00;;
20166;SDS011;10243;49.118;8.508;2023-03-03T01:38:27;129.77;;;69.57;;
20166;SDS011;10243;49.118;8.508;2023-03-03T01:38:48;124.88;;;68.03;;
20166;SDS011;10243;49.118;8.508;2023-03-03T01:39:09;122.43;;;69.50;;
20166;SDS011;10243;49.118;8.508;2023-03-03T01:39:30;126.13;;;69.57;;
20166;SDS011;10243;49.118;8.508;2023-03-03T01:39:51;125.25;;;69.82;;
20166;SDS011;10243;49.118;8.508;2023-03-03T01:40:12;123.30;;;69.27;;
20166;SDS011;10243;49.118;8.508;2023-03-03T01:40:33;129.15;;;69.25;;
20166;SDS011;10243;49.118;8.508;2023-03-03T01:40:53;128.30;;;69.87;;
20166;SDS011;10243;49.118;8.508;2023-03-03T01:41:15;122.05;;;70.47;;
20166;SDS011;10243;49.118;8.508;2023-03-03T01:41:36;119.78;;;69.03;;
20166;SDS011;10243;49.118;8.508;2023-03-03T01:41:56;121.50;;;68.57;;
20166;SDS011;10243;49.118;8.508;2023-03-03T01:42:17;123.17;;;70.47;;
20166;SDS011;10243;49.118;8.508;2023-03-03T01:42:37;115.68;;;67.07;;
20166;SDS011;10243;49.118;8.508;2023-03-03T01:42:59;120.07;;;67.07;;
20166;SDS011;10243;49.118;8.508;2023-03-03T01:43:21;119.20;;;68.35;;
20166;SDS011;10243;49.118;8.508;2023-03-03T01:43:42;123.15;;;68.78;;
20166;SDS011;10243;49.118;8.508;2023-03-03T01:44:03;124.53;;;68.65;;
20166;SDS011;10243;49.118;8.508;2023-03-03T01:44:24;117.78;;;68.30;;
20166;SDS011;10243;49.118;8.508;2023-03-03T01:44:45;119.00;;;69.45;;
20166;SDS011;10243;49.118;8.508;2023-03-03T01:45:16;120.13;;;68.90;;
20166;SDS011;10243;49.118;8.508;2023-03-03T01:45:41;123.95;;;71.05;;
20166;SDS011;10243;49.118;8.508;2023-03-03T01:46:25;125.55;;;69.65;;
20166;SDS011;10243;49.118;8.508;2023-03-03T01:46:51;122.13;;;69.70;;
20166;SDS011;10243;49.118;8.508;2023-03-03T01:47:13;120.85;;;69.85;;
20166;SDS011;10243;49.118;8.508;2023-03-03T01:47:35;120.63;;;69.47;;
20166;SDS011;10243;49.118;8.508;2023-03-03T01:47:58;121.25;;;69.28;;
20166;SDS011;10243;49.118;8.508;2023-03-03T01:48:20;119.35;;;66.63;;
20166;SDS011;10243;49.118;8.508;2023-03-03T01:48:42;113.50;;;66.18;;
20166;SDS011;10243;49.118;8.508;2023-03-03T01:49:05;119.82;;;68.07;;
20166;SDS011;10243;49.118;8.508;2023-03-03T01:49:27;117.60;;;68.00;;
20166;SDS011;10243;49.118;8.508;2023-03-03T01:49:50;111.03;;;64.50;;
20166;SDS011;10243;49.118;8.508;2023-03-03T01:50:13;112.18;;;65.07;;
20166;SDS011;10243;49.118;8.508;2023-03-03T01:50:35;107.78;;;61.33;;
20166;SDS011;10243;49.118;8.508;2023-03-03T01:50:58;104.18;;;60.05;;
20166;SDS011;10243;49.118;8.508;2023-03-03T01:51:21;109.40;;;61.97;;
20166;SDS011;10243;49.118;8.508;2023-03-03T01:51:45;104.95;;;60.42;;
20166;SDS011;10243;49.118;8.508;2023-03-03T01:52:09;102.55;;;59.15;;
20166;SDS011;10243;49.118;8.508;2023-03-03T01:52:31;112.93;;;63.78;;
20166;SDS011;10243;49.118;8.508;2023-03-03T01:52:53;125.35;;;70.65;;
20166;SDS011;10243;49.118;8.508;2023-03-03T01:53:16;135.52;;;75.50;;
20166;SDS011;10243;49.118;8.508;2023-03-03T01:53:38;137.18;;;73.50;;
20166;SDS011;10243;49.118;8.508;2023-03-03T01:54:02;132.15;;;73.85;;
20166;SDS011;10243;49.118;8.508;2023-03-03T01:54:24;134.10;;;74.13;;
20166;SDS011;10243;49.118;8.508;2023-03-03T01:54:47;128.32;;;73.10;;
20166;SDS011;10243;49.118;8.508;2023-03-03T01:55:11;128.75;;;71.82;;
20166;SDS011;10243;49.118;8.508;2023-03-03T01:55:33;129.48;;;70.45;;
20166;SDS011;10243;49.118;8.508;2023-03-03T01:55:54;125.57;;;70.25;;
20166;SDS011;10243;49.118;8.508;2023-03-03T01:56:14;120.28;;;68.32;;
20166;SDS011;10243;49.118;8.508;2023-03-03T01:56:36;122.18;;;69.47;;
20166;SDS011;10243;49.118;8.508;2023-03-03T01:56:57;118.40;;;67.57;;
20166;SDS011;10243;49.118;8.508;2023-03-03T01:57:20;122.85;;;69.95;;
20166;SDS011;10243;49.118;8.508;2023-03-03T01:57:43;122.03;;;70.88;;
20166;SDS011;10243;49.118;8.508;2023-03-03T01:58:06;126.90;;;72.55;;
20166;SDS011;10243;49.118;8.508;2023-03-03T01:58:30;132.05;;;75.70;;
20166;SDS011;10243;49.118;8.508;2023-03-03T01:58:52;132.82;;;74.88;;
20166;SDS011;10243;49.118;8.508;2023-03-03T01:59:15;134.10;;;74.93;;
20166;SDS011;10243;49.118;8.508;2023-03-03T01:59:39;138.30;;;77.22;;
20166;SDS011;10243;49.118;8.508;2023-03-03T02:00:01;140.90;;;78.60;;
20166;SDS011;10243;49.118;8.508;2023-03-03T02:00:22;143.60;;;79.93;;
20166;SDS011;10243;49.118;8.508;2023-03-03T02:00:45;134.07;;;75.75;;
20166;SDS011;10243;49.118;8.508;2023-03-03T02:01:09;135.50;;;75.80;;
20166;SDS011;10243;49.118;8.508;2023-03-03T02:01:33;141.00;;;77.15;;
20166;SDS011;10243;49.118;8.508;2023-03-03T02:01:53;142.23;;;76.97;;
20166;SDS011;10243;49.118;8.508;2023-03-03T02:02:13;138.50;;;76.05;;
20166;SDS011;10243;49.118;8.508;2023-03-03T02:02:35;137.68;;;77.20;;
20166;SDS011;10243;49.118;8.508;2023-03-03T02:02:56;139.53;;;76.83;;
20166;SDS011;10243;49.118;8.508;2023-03-03T02:03:16;142.77;;;77.05;;
20166;SDS011;10243;49.118;8.508;2023-03-03T02:03:37;142.45;;;77.25;;
20166;SDS011;10243;49.118;8.508;2023-03-03T02:03:58;146.57;;;79.17;;
20166;SDS011;10243;49.118;8.508;2023-03-03T02:04:19;141.73;;;80.47;;
20166;SDS011;10243;49.118;8.508;2023-03-03T02:04:41;131.70;;;74.25;;
20166;SDS011;10243;49.118;8.508;2023-03-03T02:05:01;113.45;;;64.63;;
20166;SDS011;10243;49.118;8.508;2023-03-03T02:05:22;113.17;;;64.67;;
20166;SDS011;10243;49.118;8.508;2023-03-03T02:05:44;122.38;;;66.90;;
20166;SDS011;10243;49.118;8.508;2023-03-03T02:06:05;113.03;;;64.90;;
20166;SDS011;10243;49.118;8.508;2023-03-03T02:06:27;108.80;;;62.75;;
20166;SDS011;10243;49.118;8.508;2023-03-03T02:06:51;110.55;;;63.33;;
20166;SDS011;10243;49.118;8.508;2023-03-03T02:07:11;107.65;;;60.72;;
20166;SDS011;10243;49.118;8.508;2023-03-03T02:07:35;104.20;;;60.58;;
20166;SDS011;10243;49.118;8.508;2023-03-03T02:07:55;100.75;;;57.90;;
20166;SDS011;10243;49.118;8.508;2023-03-03T02:08:17;95.40;;;56.07;;
20166;SDS011;10243;49.118;8.508;2023-03-03T02:08:41;94.10;;;55.95;;
20166;SDS011;10243;49.118;8.508;2023-03-03T02:09:06;100.97;;;56.88;;
20166;SDS011;10243;49.118;8.508;2023-03-03T02:09:29;95.70;;;55.90;;
20166;SDS011;10243;49.118;8.508;2023-03-03T02:09:53;92.53;;;54.83;;
20166;SDS011;10243;49.118;8.508;2023-03-03T02:10:15;97.82;;;55.13;;
20166;SDS011;10243;49.118;8.508;2023-03-03T02:10:37;95.10;;;56.67;;
20166;SDS011;10243;49.118;8.508;2023-03-03T02:10:59;95.03;;;56.75;;
20166;SDS011;10243;49.118;8.508;2023-03-03T02:11:20;100.70;;;57.88;;